Fort Wayne, IN (46802)

1:08 AM EST on February 10, 2016 (GMT -0500)
Hillegas Road, Ft.Wayne, IN | | Change Station
CLOSE
Current Station
Personal Weather Station
Location: Fort Wayne, IN
Elevation: 823 ft
Nearby Weather Stations

Elev 823 ft 41.10 °N, 85.19 °W | Updated 1 minute ago

Snow
Snow
16.2 °F
Feels Like 10 °F
N
4.2
Wind Variable Wind from WSW

Today
High -- | Low -- °F
--% Chance of Precip.
Yesterday
High -- | Low -- °F
Precip. -- in
Pressure 29.88 in
Visibility 6.0 miles
Clouds Scattered Clouds 1600 ft
Overcast 4200 ft
Windchill 10 °F
Dew Point 14 °F
Humidity 92%
Rainfall 0.00 in
Snow Depth Not available.
7:41 AM 6:08 PM
Waxing Crescent, 4% visible
METAR KFWA 100554Z 27016KT 6SM -SN SCT016 OVC042 M07/M11 A2985 RMK AO2 SLP118 P0000 60000 T10721111 11056 21072 50001
Pressure 29.88 in
Visibility 6.0 miles
Clouds Scattered Clouds 1600 ft
Overcast 4200 ft
Windchill 10 °F
Dew Point 14 °F
Humidity 92%
Rainfall 0.00 in
Snow Depth Not available.
7:41 AM 6:08 PM
Waxing Crescent, 4% visible
METAR KFWA 100554Z 27016KT 6SM -SN SCT016 OVC042 M07/M11 A2985 RMK AO2 SLP118 P0000 60000 T10721111 11056 21072 50001

10-Day Weather Forecast

Almanac

Astronomy

Feb. 10, 2016 Rise Set
Actual Time
Civil Twilight
Nautical Twilight
Astronomical Twilight
Moon
Length of Visible Light
Length of Day
Tomorrow will be .
, % of the Moon is Illuminated

Today's Extremes

State Highs State Lows

Community

WunderPhotos

Upload Photos

1,891,824 photos uploaded!

WunderBlog® & News

Nearby

Air Quality

  Air Quality AQ Index Pollutant
Not available.

Snow Depth

Station Depth Elevation

Earthquake Activity

City Distance Mag. Time & Date
Minimum magnitude displayed is 2.5.

Coastal Water Temperatures

Place Temperature

Stations

Nearby Weather Stations

Station Location Temp. Windchill Dew Point Humidity Wind Precip. Elev Updated Type
                   

Watches & Warnings

There are currently no watches in effect.